Time;durP1;ratioP1;P1;durP2;ratioP2;P2;SDS_P1;SDS_P2;PMS_P1;PMS_P2;Temp;Humidity;BMP_temperature;BMP_pressure;BME280_temperature;BME280_humidity;BME280_pressure;Samples;Min_cycle;Max_cycle;Signal;HPM_P1;HPM_P2
2022/10/05 00:02:18;;;;;;;1.42;0.50;;;;;;;-140.72;100.00;52715.53;5006815;28;20090;-68
2022/10/05 00:04:44;;;;;;;1.77;0.73;;;;;;;-140.72;100.00;52687.13;5004538;28;20028;-67
2022/10/05 00:07:17;;;;;;;1.45;0.90;;;;;;;-140.72;100.00;52707.41;5005725;28;20203;-68
2022/10/05 00:09:58;;;;;;;4.35;0.73;;;;;;;-140.72;100.00;52668.84;5007355;28;20025;-68
2022/10/05 00:12:26;;;;;;;2.05;0.80;;;;;;;-140.72;100.00;52752.06;5004933;28;20018;-68
2022/10/05 00:14:59;;;;;;;0.93;0.57;;;;;;;-140.72;100.00;52723.66;5006756;28;20079;-68
2022/10/05 00:17:27;;;;;;;1.65;0.50;;;;;;;-140.72;100.00;52709.44;5006860;28;20458;-68
2022/10/05 00:19:53;;;;;;;1.10;0.70;;;;;;;-140.72;100.00;52772.34;5005661;28;20036;-68
2022/10/05 00:22:37;;;;;;;1.35;0.88;;;;;;;-140.72;100.00;52721.63;5006354;28;20377;-67
2022/10/05 00:25:11;;;;;;;0.75;0.40;;;;;;;-140.72;100.00;52741.91;5006957;28;20036;-69
2022/10/05 00:27:37;;;;;;;6.40;1.02;;;;;;;-140.72;100.00;52715.53;5004682;28;20671;-69
2022/10/05 00:30:17;;;;;;;1.63;0.85;;;;;;;-140.72;100.00;52683.06;5007306;28;20084;-67
2022/10/05 00:32:43;;;;;;;;;;;;;;;-140.72;100.00;52683.06;5007583;28;20018;-69
2022/10/05 00:35:09;;;;;;;1.42;0.60;;;;;;;-140.72;100.00;52695.25;5003061;28;19917;-68
2022/10/05 00:37:35;;;;;;;1.23;0.50;;;;;;;-140.72;100.00;52693.22;5006337;28;20457;-68
2022/10/05 00:40:01;;;;;;;1.10;0.60;;;;;;;-140.72;100.00;52735.81;5006618;28;20098;-68
2022/10/05 00:43:09;;;;;;;1.65;0.77;;;;;;;-140.72;100.00;52707.41;5006569;28;20033;-67
2022/10/05 00:45:47;;;;;;;1.60;0.77;;;;;;;-140.72;100.00;52711.47;4949221;28;20110;-68
2022/10/05 00:48:21;;;;;;;1.23;0.80;;;;;;;-140.72;100.00;52707.41;5005901;28;20153;-68
2022/10/05 00:50:56;;;;;;;2.55;0.73;;;;;;;-140.72;100.00;52715.53;5003875;28;20030;-67
2022/10/05 00:53:29;;;;;;;2.05;0.70;;;;;;;-140.72;100.00;52709.44;5006137;28;20457;-68
2022/10/05 00:55:54;;;;;;;1.42;0.77;;;;;;;-140.72;100.00;52752.06;5005747;28;20049;-67
2022/10/05 00:58:35;;;;;;;0.80;0.60;;;;;;;-140.72;100.00;52691.19;5006272;28;20033;-67
2022/10/05 01:01:14;;;;;;;0.65;0.52;;;;;;;-140.72;100.00;52723.66;5005922;28;20143;-68
2022/10/05 01:03:53;;;;;;;0.90;0.50;;;;;;;-140.72;100.00;52715.53;5006387;28;20046;-68
2022/10/05 01:06:49;;;;;;;1.77;0.75;;;;;;;-140.72;100.00;52748.00;5001966;28;20493;-68
2022/10/05 01:09:42;;;;;;;2.20;1.02;;;;;;;-140.72;100.00;52727.72;5006463;28;20014;-68
2022/10/05 01:12:20;;;;;;;2.90;1.30;;;;;;;-140.72;100.00;52727.72;5004126;28;20048;-68
2022/10/05 01:14:45;;;;;;;1.88;1.00;;;;;;;-140.72;100.00;52691.19;5002242;28;20030;-68
2022/10/05 01:17:32;;;;;;;3.63;1.67;;;;;;;-140.72;100.00;52674.94;5003946;28;20048;-68
2022/10/05 01:20:15;;;;;;;2.42;1.52;;;;;;;-140.72;100.00;52754.09;5005618;28;20033;-68
2022/10/05 01:23:08;;;;;;;3.13;1.70;;;;;;;-140.72;100.00;52687.13;5005266;28;20457;-67
2022/10/05 01:26:05;;;;;;;6.95;1.85;;;;;;;-140.72;100.00;52715.53;5005293;28;20072;-68
2022/10/05 01:28:36;;;;;;;3.67;1.98;;;;;;;-140.72;100.00;52670.88;5004388;28;20028;-68
2022/10/05 01:31:16;;;;;;;3.08;2.00;;;;;;;-140.72;100.00;52739.88;5003842;28;20028;-68
2022/10/05 01:34:07;;;;;;;3.53;1.98;;;;;;;-140.72;100.00;52748.00;5006874;28;20520;-68
2022/10/05 01:36:40;;;;;;;3.13;2.15;;;;;;;-140.72;100.00;52717.56;5009550;28;20026;-69
2022/10/05 01:39:38;;;;;;;3.20;2.22;;;;;;;-140.72;100.00;52731.75;5004411;28;20060;-68
2022/10/05 01:42:09;;;;;;;3.40;2.40;;;;;;;-140.72;100.00;52674.94;4991895;28;20124;-68
2022/10/05 01:44:46;;;;;;;3.38;2.08;;;;;;;-140.72;100.00;52670.88;5009711;28;20057;-69
2022/10/05 01:47:42;;;;;;;3.67;2.35;;;;;;;-140.72;100.00;52711.47;5008139;28;20607;-68
2022/10/05 01:50:26;;;;;;;4.93;2.28;;;;;;;-140.72;100.00;52727.72;5008739;28;20038;-68
2022/10/05 01:53:09;;;;;;;3.40;1.65;;;;;;;-140.72;100.00;52662.78;5004310;28;20026;-68
2022/10/05 01:55:45;;;;;;;3.08;1.80;;;;;;;-140.72;100.00;52705.38;5007415;28;20058;-68
2022/10/05 01:58:35;;;;;;;4.72;1.85;;;;;;;-140.72;100.00;52719.59;5008570;28;20034;-68
2022/10/05 02:01:07;;;;;;;;;;;;;;;-140.72;100.00;52707.41;5009875;28;20033;-67
2022/10/05 02:03:45;;;;;;;5.88;2.13;;;;;;;-140.72;100.00;52735.81;5007596;28;20279;-68
2022/10/05 02:06:17;;;;;;;3.72;2.17;;;;;;;-140.72;100.00;52697.28;5008894;28;20081;-68
2022/10/05 02:09:01;;;;;;;3.70;1.73;;;;;;;-140.72;100.00;52711.47;5008679;28;20037;-68
2022/10/05 02:11:26;;;;;;;3.25;1.80;;;;;;;-140.72;100.00;52741.91;5008201;28;20360;-67
2022/10/05 02:13:57;;;;;;;3.13;2.13;;;;;;;-140.72;100.00;52717.56;5008429;28;20029;-67
2022/10/05 02:16:43;;;;;;;2.92;2.03;;;;;;;-140.72;100.00;52737.84;5008594;28;20068;-68
2022/10/05 02:19:22;;;;;;;4.97;2.15;;;;;;;-140.72;100.00;52709.44;5008150;28;20034;-68
2022/10/05 02:21:57;;;;;;;2.88;1.85;;;;;;;-140.72;100.00;52727.72;5004716;28;20021;-68
2022/10/05 02:24:28;;;;;;;3.53;2.10;;;;;;;-140.72;100.00;52739.88;5003974;28;20022;-69
2022/10/05 02:26:56;;;;;;;3.97;2.15;;;;;;;-140.72;100.00;52717.56;5009245;28;20030;-68
2022/10/05 02:29:26;;;;;;;4.32;1.92;;;;;;;-140.72;100.00;52713.50;5009651;28;20358;-68
2022/10/05 02:31:57;;;;;;;4.97;2.20;;;;;;;-140.72;100.00;52743.94;5009119;28;20104;-69
2022/10/05 02:34:42;;;;;;;2.83;1.98;;;;;;;-140.72;100.00;52719.59;5003595;28;20476;-68
2022/10/05 02:37:36;;;;;;;3.78;2.00;;;;;;;-140.72;100.00;52713.50;5004550;28;20034;-69
2022/10/05 02:40:43;;;;;;;5.13;2.40;;;;;;;-140.72;100.00;52733.78;4967555;28;20177;-69
2022/10/05 02:43:47;;;;;;;5.80;2.20;;;;;;;-140.72;100.00;52735.81;5008000;28;20034;-70
2022/10/05 02:46:18;;;;;;;4.72;2.63;;;;;;;-140.72;100.00;52729.75;4965549;28;20034;-69
2022/10/05 02:48:55;;;;;;;4.47;2.03;;;;;;;-140.72;100.00;52748.00;5004935;28;20026;-69
2022/10/05 02:51:28;;;;;;;4.55;2.08;;;;;;;-140.72;100.00;52754.09;5007848;28;20021;-69
2022/10/05 02:54:14;;;;;;;3.05;1.90;;;;;;;-140.72;100.00;52715.53;5008871;28;20024;-69
2022/10/05 02:57:11;;;;;;;3.92;2.28;;;;;;;-140.72;100.00;52699.31;5008770;28;21091;-68
2022/10/05 02:59:43;;;;;;;3.15;2.00;;;;;;;-140.72;100.00;52764.25;4983125;28;20046;-67
2022/10/05 03:02:35;;;;;;;4.38;2.30;;;;;;;-140.72;100.00;52727.72;5006968;28;20038;-68
2022/10/05 03:05:45;;;;;;;2.90;1.55;;;;;;;-140.72;100.00;52721.63;5008041;28;20010;-68
2022/10/05 03:09:03;;;;;;;2.20;1.70;;;;;;;-140.72;100.00;52721.63;4951983;28;20066;-67
2022/10/05 03:11:42;;;;;;;3.35;2.08;;;;;;;-140.72;100.00;52727.72;4972243;28;20030;-68
2022/10/05 03:14:17;;;;;;;4.32;2.15;;;;;;;-140.72;100.00;52685.09;4976510;28;20433;-68
2022/10/05 03:17:04;;;;;;;2.58;1.67;;;;;;;-140.72;100.00;52731.75;4986268;28;20033;-68
2022/10/05 03:19:32;;;;;;;3.95;2.10;;;;;;;-140.72;100.00;52756.13;5004130;28;20029;-68
2022/10/05 03:22:06;;;;;;;2.55;1.70;;;;;;;-140.72;100.00;52715.53;5008566;28;20160;-68
2022/10/05 03:24:55;;;;;;;3.63;2.42;;;;;;;-140.72;100.00;52725.69;5007120;28;20015;-68
2022/10/05 03:27:48;;;;;;;4.78;2.22;;;;;;;-140.72;100.00;52697.28;5007970;28;20041;-69
2022/10/05 03:30:21;;;;;;;3.28;2.15;;;;;;;-140.72;100.00;52713.50;5008030;28;20114;-69
2022/10/05 03:33:08;;;;;;;5.45;2.47;;;;;;;-140.72;100.00;52717.56;5007365;28;20025;-69
2022/10/05 03:36:05;;;;;;;6.15;2.60;;;;;;;-140.72;100.00;52713.50;5006769;28;20457;-69
2022/10/05 03:38:48;;;;;;;3.20;2.58;;;;;;;-140.72;100.00;52760.19;5008265;28;20052;-68
2022/10/05 03:41:13;;;;;;;3.28;2.17;;;;;;;-140.72;100.00;52713.50;5008044;28;20029;-68
2022/10/05 03:43:44;;;;;;;4.45;2.25;;;;;;;-140.72;100.00;52707.41;5008100;28;20089;-68
2022/10/05 03:46:30;;;;;;;4.18;2.25;;;;;;;-140.72;100.00;52715.53;5005838;28;20045;-69
2022/10/05 03:49:21;;;;;;;3.70;2.00;;;;;;;-140.72;100.00;52715.53;5007463;28;20025;-69
2022/10/05 03:52:20;;;;;;;4.47;2.33;;;;;;;-140.72;100.00;52676.97;4999463;28;20433;-68
2022/10/05 03:54:58;;;;;;;2.70;1.77;;;;;;;-140.72;100.00;52695.25;4960057;28;20034;-68
2022/10/05 03:57:28;;;;;;;3.80;2.08;;;;;;;-140.72;100.00;52743.94;5006084;28;20116;-68
2022/10/05 04:00:05;;;;;;;5.25;2.33;;;;;;;-140.72;100.00;52725.69;5006077;28;20029;-68
2022/10/05 04:02:39;;;;;;;2.60;1.73;;;;;;;-140.72;100.00;52729.75;5004122;28;20042;-69
2022/10/05 04:05:11;;;;;;;3.88;1.98;;;;;;;-140.72;100.00;52719.59;5006797;28;20022;-68
2022/10/05 04:07:45;;;;;;;2.78;2.00;;;;;;;-140.72;100.00;52727.72;5006554;28;20061;-68
2022/10/05 04:10:22;;;;;;;3.13;2.17;;;;;;;-140.72;100.00;52725.69;4997247;28;20145;-69
2022/10/05 04:12:54;;;;;;;6.32;1.75;;;;;;;-140.72;100.00;52695.25;5007207;28;20022;-68
2022/10/05 04:15:54;;;;;;;2.22;1.40;;;;;;;-140.72;100.00;52707.41;5006761;28;20021;-69
2022/10/05 04:18:25;;;;;;;2.13;1.40;;;;;;;-140.72;100.00;52691.19;4997481;28;20036;-68
2022/10/05 04:20:56;;;;;;;8.45;1.75;;;;;;;-140.72;100.00;52735.81;5004764;28;20037;-68
2022/10/05 04:23:37;;;;;;;2.88;1.60;;;;;;;-140.72;100.00;52756.13;5007971;28;20032;-68
2022/10/05 04:26:12;;;;;;;2.42;1.27;;;;;;;-140.72;100.00;52725.69;5000263;28;20375;-69
2022/10/05 04:28:51;;;;;;;1.80;1.15;;;;;;;-140.72;100.00;52717.56;5005083;28;21253;-69
2022/10/05 04:31:43;;;;;;;2.10;1.20;;;;;;;-140.72;100.00;52683.06;5000120;28;20546;-68
2022/10/05 04:34:25;;;;;;;1.73;1.02;;;;;;;-140.72;100.00;52707.41;4996594;28;20046;-68
2022/10/05 04:37:01;;;;;;;2.13;0.88;;;;;;;-140.72;100.00;52748.00;5003005;28;20033;-68
2022/10/05 04:39:48;;;;;;;1.13;0.63;;;;;;;-140.72;100.00;52741.91;5002501;28;20045;-68
2022/10/05 04:42:16;;;;;;;2.15;1.00;;;;;;;-140.72;100.00;52711.47;4996436;28;21062;-68
2022/10/05 04:45:02;;;;;;;1.35;0.65;;;;;;;-140.72;100.00;52733.78;5002071;28;20032;-67
2022/10/05 04:47:36;;;;;;;3.55;0.80;;;;;;;-140.72;100.00;52743.94;4999206;28;20033;-68
2022/10/05 04:50:38;;;;;;;1.48;0.63;;;;;;;-140.72;100.00;52729.75;5000520;28;20378;-68
2022/10/05 04:53:26;;;;;;;1.58;1.00;;;;;;;-140.72;100.00;52758.16;5004376;28;20117;-68
2022/10/05 04:55:57;;;;;;;1.27;0.77;;;;;;;-140.72;100.00;52735.81;5003228;28;20026;-66
2022/10/05 04:59:08;;;;;;;2.58;0.55;;;;;;;-140.72;100.00;52723.66;5004988;28;20030;-67
2022/10/05 05:02:05;;;;;;;2.10;0.55;;;;;;;-140.72;100.00;52723.66;5003048;28;20040;-66
2022/10/05 05:04:52;;;;;;;0.77;0.50;;;;;;;-140.72;100.00;52735.81;5000602;28;20273;-66
2022/10/05 05:07:39;;;;;;;2.08;0.63;;;;;;;-140.72;100.00;52709.44;4999856;28;20026;-67
2022/10/05 05:10:25;;;;;;;2.20;0.70;;;;;;;-140.72;100.00;52737.84;5000373;28;20026;-67
2022/10/05 05:13:11;;;;;;;0.93;0.45;;;;;;;-140.72;100.00;52723.66;4999490;28;20029;-68
2022/10/05 05:15:45;;;;;;;1.45;0.50;;;;;;;-140.72;100.00;52741.91;4995567;28;20033;-68
2022/10/05 05:18:29;;;;;;;0.82;0.52;;;;;;;-140.72;100.00;52707.41;5002889;28;20081;-69
2022/10/05 05:21:08;;;;;;;0.80;0.60;;;;;;;-140.72;100.00;52715.53;4995006;28;20041;-69
2022/10/05 05:23:40;;;;;;;0.38;0.28;;;;;;;-140.72;100.00;52725.69;4998638;28;20441;-67
2022/10/05 05:26:18;;;;;;;1.52;0.47;;;;;;;-140.72;100.00;52735.81;5000081;28;20034;-67
2022/10/05 05:28:53;;;;;;;1.10;0.65;;;;;;;-140.72;100.00;52743.94;4997143;28;20204;-67
2022/10/05 05:31:30;;;;;;;0.85;0.52;;;;;;;-140.72;100.00;52723.66;5000079;28;20433;-67
2022/10/05 05:34:04;;;;;;;1.42;0.80;;;;;;;-140.72;100.00;52723.66;4999329;28;20018;-68
2022/10/05 05:36:41;;;;;;;0.73;0.43;;;;;;;-140.72;100.00;52743.94;5002678;28;20034;-68
2022/10/05 05:39:20;;;;;;;0.65;0.30;;;;;;;-140.72;100.00;52683.06;5005081;28;20069;-69
2022/10/05 05:42:06;;;;;;;6.50;0.70;;;;;;;-140.72;100.00;52711.47;4998926;28;20033;-68
2022/10/05 05:44:40;;;;;;;0.88;0.50;;;;;;;-140.72;100.00;52697.28;5004459;28;20021;-68
2022/10/05 05:47:34;;;;;;;1.25;0.50;;;;;;;-140.72;100.00;52750.03;5005617;28;20036;-68
2022/10/05 05:50:20;;;;;;;1.02;0.45;;;;;;;-140.72;100.00;52731.75;5005366;28;20029;-68
2022/10/05 05:52:54;;;;;;;2.55;0.60;;;;;;;-140.72;100.00;52768.28;5000321;28;20030;-69
2022/10/05 05:55:28;;;;;;;1.88;0.93;;;;;;;-140.72;100.00;52729.75;5009124;28;20117;-67
2022/10/05 05:57:58;;;;;;;3.58;0.63;;;;;;;-140.72;100.00;52711.47;5007269;28;20022;-76
2022/10/05 06:00:36;;;;;;;2.88;0.55;;;;;;;-140.72;100.00;52752.06;5005183;28;20021;-76
2022/10/05 06:03:29;;;;;;;1.08;0.55;;;;;;;-140.72;100.00;52699.31;4987781;28;20053;-67
2022/10/05 06:05:58;;;;;;;0.82;0.55;;;;;;;-140.72;100.00;52756.13;5004862;28;20061;-69
2022/10/05 06:08:32;;;;;;;1.33;0.57;;;;;;;-140.72;100.00;52715.53;5005796;28;20013;-68
2022/10/05 06:11:01;;;;;;;0.88;0.52;;;;;;;-140.72;100.00;52713.50;5006803;28;20347;-69
2022/10/05 06:13:33;;;;;;;1.10;0.60;;;;;;;-140.72;100.00;52735.81;5002431;28;20026;-66
2022/10/05 06:16:08;;;;;;;0.68;0.52;;;;;;;-140.72;100.00;52723.66;4998726;28;20042;-69
2022/10/05 06:18:38;;;;;;;1.05;0.47;;;;;;;-140.72;100.00;52721.63;4997828;28;20018;-68
2022/10/05 06:21:25;;;;;;;1.67;0.80;;;;;;;-140.72;100.00;52756.13;5006832;28;20072;-67
2022/10/05 06:23:57;;;;;;;2.08;0.70;;;;;;;-140.72;100.00;52782.50;5001986;28;20030;-68
2022/10/05 06:26:27;;;;;;;3.17;0.85;;;;;;;-140.72;100.00;52733.78;5007092;28;20025;-68
2022/10/05 06:29:02;;;;;;;1.20;0.60;;;;;;;-140.72;100.00;52723.66;5007397;28;20390;-68
2022/10/05 06:31:44;;;;;;;1.80;1.02;;;;;;;-140.72;100.00;52683.06;5007100;28;20480;-68
2022/10/05 06:34:31;;;;;;;3.00;0.90;;;;;;;-140.72;100.00;52695.25;5004336;28;20108;-70
2022/10/05 06:37:04;;;;;;;1.27;0.70;;;;;;;-140.72;100.00;52691.19;5006624;28;20439;-68
2022/10/05 06:40:16;;;;;;;1.50;0.93;;;;;;;-140.72;100.00;52693.22;5000900;28;20100;-68
2022/10/05 06:42:55;;;;;;;1.13;0.52;;;;;;;-140.72;100.00;52721.63;5004989;28;20049;-68
2022/10/05 06:45:46;;;;;;;1.33;0.60;;;;;;;-140.72;100.00;52723.66;5010869;28;20032;-68
2022/10/05 06:48:36;;;;;;;1.90;0.90;;;;;;;-140.72;100.00;52713.50;5010025;28;20052;-68
2022/10/05 06:51:07;;;;;;;4.15;0.93;;;;;;;-140.72;100.00;52725.69;5002197;28;20074;-68
2022/10/05 06:53:44;;;;;;;2.28;0.90;;;;;;;-140.72;100.00;52721.63;5010359;28;20116;-68
2022/10/05 06:56:28;;;;;;;4.82;1.02;;;;;;;-140.72;100.00;52711.47;5011320;28;20026;-68
2022/10/05 06:58:59;;;;;;;1.60;0.80;;;;;;;-140.72;100.00;52699.31;5010711;28;20026;-68
2022/10/05 07:01:27;;;;;;;1.25;0.70;;;;;;;-140.72;100.00;52713.50;5010311;28;20026;-69
2022/10/05 07:04:15;;;;;;;1.80;0.82;;;;;;;-140.72;100.00;52715.53;5003913;28;20104;-68
2022/10/05 07:06:53;;;;;;;1.42;0.82;;;;;;;-140.72;100.00;52711.47;5004262;28;20178;-68
2022/10/05 07:09:34;;;;;;;1.92;0.95;;;;;;;-140.72;100.00;52725.69;4990798;28;20037;-68
2022/10/05 07:12:30;;;;;;;1.10;0.73;;;;;;;-140.72;100.00;52691.19;4999463;28;20067;-68
2022/10/05 07:15:00;;;;;;;1.35;0.80;;;;;;;-140.72;100.00;52733.78;5009549;28;20018;-69
2022/10/05 07:18:02;;;;;;;2.13;1.25;;;;;;;-140.72;100.00;52721.63;4998282;28;20031;-68
2022/10/05 07:20:42;;;;;;;1.00;0.65;;;;;;;-140.72;100.00;52731.75;4991484;28;20405;-68
2022/10/05 07:23:43;;;;;;;1.35;0.68;;;;;;;-140.72;100.00;52717.56;4997295;28;20028;-68
2022/10/05 07:26:27;;;;;;;2.15;1.15;;;;;;;-140.72;100.00;52660.75;5009936;28;20041;-69
2022/10/05 07:29:14;;;;;;;2.67;0.93;;;;;;;-140.72;100.00;52723.66;5009180;28;20056;-68
2022/10/05 07:32:04;;;;;;;2.58;1.08;;;;;;;-140.72;100.00;52689.16;5002175;28;20532;-67
2022/10/05 07:34:35;;;;;;;;;;;;;;;-140.72;100.00;52670.88;5010728;28;20030;-67
2022/10/05 07:40:31;;;;;;;1.75;1.00;;;;;;;-140.72;100.00;52711.47;5010127;28;20125;-67
2022/10/05 07:43:26;;;;;;;2.03;0.98;;;;;;;-140.72;100.00;52666.84;5007229;28;20028;-68
2022/10/05 07:46:01;;;;;;;1.65;0.88;;;;;;;-140.72;100.00;52666.84;5005569;28;20053;-67
2022/10/05 07:48:46;;;;;;;2.55;1.08;;;;;;;-140.72;100.00;52725.69;5007485;28;20018;-67
2022/10/05 07:51:37;;;;;;;2.10;1.30;;;;;;;-140.72;100.00;52689.16;5003028;28;20049;-67
2022/10/05 07:54:09;;;;;;;1.08;0.60;;;;;;;-140.72;100.00;52715.53;4997974;28;20496;-67
2022/10/05 07:56:42;;;;;;;1.45;0.90;;;;;;;-140.72;100.00;52743.94;5010062;28;20100;-67
2022/10/05 07:59:34;;;;;;;1.95;1.15;;;;;;;-140.72;100.00;52703.34;5001588;28;20022;-68
2022/10/05 08:02:14;;;;;;;1.90;0.88;;;;;;;-140.72;100.00;52725.69;4997622;28;20034;-68
2022/10/05 08:04:50;;;;;;;1.65;1.10;;;;;;;-140.72;100.00;52715.53;4996293;28;20114;-68
2022/10/05 08:07:16;;;;;;;1.42;0.93;;;;;;;-140.72;100.00;52672.91;5010326;28;20021;-67
2022/10/05 08:09:49;;;;;;;1.42;0.93;;;;;;;-140.72;100.00;52725.69;5009977;28;20036;-67
2022/10/05 08:12:14;;;;;;;2.65;1.00;;;;;;;-140.72;100.00;52683.06;5009406;28;20269;-68
2022/10/05 08:14:57;;;;;;;1.88;1.02;;;;;;;-140.72;100.00;52650.59;5010153;28;20037;-69
2022/10/05 08:17:37;;;;;;;1.23;0.85;;;;;;;-140.72;100.00;52683.06;5009519;28;20017;-68
2022/10/05 08:20:22;;;;;;;2.85;1.30;;;;;;;-140.72;100.00;52660.75;4998085;28;20049;-68
2022/10/05 08:22:54;;;;;;;2.97;1.35;;;;;;;-140.72;100.00;52681.03;5008620;28;20055;-67
2022/10/05 08:25:49;;;;;;;1.77;1.02;;;;;;;-140.72;100.00;52723.66;5008965;28;20026;-67
2022/10/05 08:28:22;;;;;;;1.63;1.00;;;;;;;-140.72;100.00;52699.31;4981951;28;20033;-69
2022/10/05 08:31:10;;;;;;;4.10;1.02;;;;;;;-140.72;100.00;52705.38;5009464;28;20026;-68
2022/10/05 08:33:57;;;;;;;2.95;1.40;;;;;;;-140.72;100.00;52683.06;4999746;28;20083;-68
2022/10/05 08:36:42;;;;;;;2.05;1.15;;;;;;;-140.72;100.00;52687.13;5009416;28;20414;-69
2022/10/05 08:39:17;;;;;;;1.88;1.10;;;;;;;-140.72;100.00;52672.91;5008005;28;20046;-68
2022/10/05 08:42:19;;;;;;;2.50;0.73;;;;;;;-140.72;100.00;52707.41;5001927;28;20019;-69
2022/10/05 08:44:47;;;;;;;1.08;0.80;;;;;;;-140.72;100.00;52658.72;5008083;28;20071;-69
2022/10/05 08:47:50;;;;;;;1.17;0.68;;;;;;;-140.72;100.00;52638.41;5008850;28;20037;-68
2022/10/05 08:50:30;;;;;;;1.42;0.80;;;;;;;-140.72;100.00;52652.63;5000090;28;20439;-68
2022/10/05 08:53:11;;;;;;;1.75;0.65;;;;;;;-140.72;100.00;52672.91;5007506;28;20399;-68
2022/10/05 08:55:50;;;;;;;1.63;0.80;;;;;;;-140.72;100.00;52660.75;4996382;28;20307;-67
2022/10/05 08:58:35;;;;;;;2.17;0.85;;;;;;;-140.72;100.00;52674.94;5008666;28;20036;-68
2022/10/05 09:01:13;;;;;;;1.60;0.77;;;;;;;-140.72;100.00;52674.94;4998319;28;20028;-68
2022/10/05 09:04:04;;;;;;;2.85;0.63;;;;;;;-140.72;100.00;52687.13;5002068;28;20025;-68
2022/10/05 09:07:09;;;;;;;2.20;0.93;;;;;;;-140.72;100.00;52636.38;4969446;28;20117;-68
2022/10/05 09:09:52;;;;;;;2.60;1.08;;;;;;;-140.72;100.00;52650.59;5008927;28;20585;-67
2022/10/05 09:12:33;;;;;;;1.90;1.02;;;;;;;-140.72;100.00;52672.91;5008689;28;20072;-67
2022/10/05 09:15:01;;;;;;;1.25;0.77;;;;;;;-140.72;100.00;52664.81;4995175;28;20348;-68
2022/10/05 09:18:06;;;;;;;1.55;1.00;;;;;;;-140.72;100.00;52634.38;4995712;28;20041;-67
2022/10/05 09:21:23;;;;;;;1.08;0.60;;;;;;;-140.72;100.00;52650.59;4958426;28;20046;-67
2022/10/05 09:24:02;;;;;;;1.73;1.15;;;;;;;-140.72;100.00;52626.25;4952816;28;20096;-67
2022/10/05 09:26:41;;;;;;;;;;;;;;;-140.72;100.00;52638.41;4997637;28;20271;-68
2022/10/05 09:29:28;;;;;;;0.63;0.33;;;;;;;-140.72;100.00;52679.00;5008255;28;19920;-67
2022/10/05 09:32:12;;;;;;;0.82;0.57;;;;;;;-140.72;100.00;52652.63;5009213;28;20124;-68
2022/10/05 09:34:54;;;;;;;1.05;0.57;;;;;;;-140.72;100.00;52638.41;4990213;28;20022;-68
2022/10/05 09:37:30;;;;;;;2.22;0.60;;;;;;;-140.72;100.00;52670.88;5006585;28;20041;-69
2022/10/05 09:40:04;;;;;;;1.63;0.85;;;;;;;-140.72;100.00;52614.06;5002398;28;20073;-68
2022/10/05 09:42:54;;;;;;;0.85;0.50;;;;;;;-140.72;100.00;52636.38;5004607;28;20112;-68
2022/10/05 09:45:34;;;;;;;1.67;0.70;;;;;;;-140.72;100.00;52620.16;4996615;28;20022;-69
2022/10/05 09:48:27;;;;;;;2.00;0.75;;;;;;;-140.72;100.00;52662.78;5006255;28;20557;-68
2022/10/05 09:51:02;;;;;;;1.60;0.50;;;;;;;-140.72;100.00;52664.81;5001554;28;20109;-69
2022/10/05 09:53:46;;;;;;;1.92;0.98;;;;;;;-140.72;100.00;52683.06;5002597;28;20382;-68
2022/10/05 09:56:32;;;;;;;1.73;0.95;;;;;;;-140.72;100.00;52634.38;5000690;28;20470;-68
2022/10/05 09:59:05;;;;;;;1.50;0.75;;;;;;;-140.72;100.00;52636.38;5012470;28;20025;-68
2022/10/05 10:01:39;;;;;;;2.00;0.80;;;;;;;-140.72;100.00;52636.38;4998063;28;20026;-68
2022/10/05 10:04:32;;;;;;;1.25;0.70;;;;;;;-140.72;100.00;52622.19;5002172;28;20109;-69
2022/10/05 10:07:35;;;;;;;1.85;0.80;;;;;;;-140.72;100.00;52668.84;4998509;28;20029;-68
2022/10/05 10:10:29;;;;;;;2.22;1.20;;;;;;;-140.72;100.00;52630.31;5010852;28;20048;-68
2022/10/05 10:13:03;;;;;;;3.45;0.98;;;;;;;-140.72;100.00;52654.66;4996247;28;20041;-69
2022/10/05 10:15:51;;;;;;;1.50;0.65;;;;;;;-140.72;100.00;52656.69;5002864;28;20076;-68
2022/10/05 10:18:48;;;;;;;1.38;0.77;;;;;;;-140.72;100.00;52654.66;5011318;28;20113;-67
2022/10/05 10:21:13;;;;;;;1.83;0.70;;;;;;;-140.72;100.00;52648.56;5011081;28;20018;-68
2022/10/05 10:23:59;;;;;;;3.33;1.20;;;;;;;-140.72;100.00;52614.06;5012309;28;20025;-68
2022/10/05 10:26:54;;;;;;;3.35;1.15;;;;;;;-140.72;100.00;52654.66;4999877;28;20025;-68
2022/10/05 10:29:41;;;;;;;2.35;0.98;;;;;;;-140.72;100.00;52648.56;5006247;28;20018;-68
2022/10/05 10:32:51;;;;;;;2.08;0.73;;;;;;;-140.72;100.00;52674.94;5005678;28;20020;-68
2022/10/05 10:35:35;;;;;;;1.77;1.10;;;;;;;-140.72;100.00;52642.47;5010305;28;20101;-68
2022/10/05 10:38:31;;;;;;;1.67;1.00;;;;;;;-140.72;100.00;52683.06;5001174;28;20021;-68
2022/10/05 10:40:59;;;;;;;1.70;0.77;;;;;;;-140.72;100.00;52654.66;5011603;28;20037;-68
2022/10/05 10:44:02;;;;;;;2.08;1.08;;;;;;;-140.72;100.00;52670.88;5011147;28;20431;-68
2022/10/05 10:47:05;;;;;;;2.00;0.82;;;;;;;-140.72;100.00;52638.41;5003704;28;20037;-68
2022/10/05 10:49:46;;;;;;;1.45;1.02;;;;;;;-140.72;100.00;52699.31;5009343;28;20064;-69
2022/10/05 10:52:31;;;;;;;1.75;1.20;;;;;;;-140.72;100.00;52646.53;5002896;28;20029;-69
2022/10/05 10:55:03;;;;;;;1.83;0.90;;;;;;;-140.72;100.00;52603.94;4996521;28;20084;-69
2022/10/05 10:57:50;;;;;;;1.95;0.82;;;;;;;-140.72;100.00;52636.38;5010100;28;20564;-69
2022/10/05 11:00:40;;;;;;;1.33;0.90;;;;;;;-140.72;100.00;52666.84;5009621;28;20018;-68
2022/10/05 11:03:39;;;;;;;2.42;1.17;;;;;;;-140.72;100.00;52630.31;5009192;28;20080;-69
2022/10/05 11:06:15;;;;;;;5.18;1.75;;;;;;;-140.72;100.00;52660.75;4997909;28;20026;-67
2022/10/05 11:08:50;;;;;;;2.70;1.10;;;;;;;-140.72;100.00;52642.47;4999532;28;20095;-67
2022/10/05 11:11:21;;;;;;;2.17;0.98;;;;;;;-140.72;100.00;52638.41;5009671;28;20549;-68
2022/10/05 11:14:13;;;;;;;2.85;1.33;;;;;;;-140.72;100.00;52638.41;5010085;28;20052;-68
2022/10/05 11:17:17;;;;;;;2.75;1.27;;;;;;;-140.72;100.00;52630.31;4999005;28;20045;-68
2022/10/05 11:19:46;;;;;;;1.63;1.02;;;;;;;-140.72;100.00;52636.38;4998157;28;20377;-68
2022/10/05 11:22:18;;;;;;;4.07;1.15;;;;;;;-140.72;100.00;52650.59;5008835;28;20370;-69
2022/10/05 11:25:14;;;;;;;2.03;1.08;;;;;;;-140.72;100.00;52650.59;5005196;28;20343;-69
2022/10/05 11:27:42;;;;;;;1.83;1.25;;;;;;;-140.72;100.00;52648.56;5008013;28;20040;-69
2022/10/05 11:30:20;;;;;;;4.18;1.50;;;;;;;-140.72;100.00;52634.38;5009964;28;20522;-68
2022/10/05 11:32:48;;;;;;;5.30;1.52;;;;;;;-140.72;100.00;52638.41;5005650;28;20044;-68
2022/10/05 11:35:31;;;;;;;2.35;1.20;;;;;;;-140.72;100.00;52644.50;5003504;28;20076;-68
2022/10/05 11:37:59;;;;;;;4.00;1.70;;;;;;;-140.72;100.00;52636.38;5001000;28;20068;-68
2022/10/05 11:41:01;;;;;;;2.90;1.58;;;;;;;-140.72;100.00;52648.56;5000332;28;20053;-69
2022/10/05 11:43:39;;;;;;;2.35;1.30;;;;;;;-140.72;100.00;52638.41;4994603;28;20442;-68
2022/10/05 11:46:22;;;;;;;1.85;1.20;;;;;;;-140.72;100.00;52636.38;5004256;28;20388;-68
2022/10/05 11:49:18;;;;;;;3.28;1.23;;;;;;;-140.72;100.00;52589.72;5001887;28;20030;-69
2022/10/05 11:51:59;;;;;;;3.33;1.30;;;;;;;-140.72;100.00;52616.09;5003502;28;20101;-68
2022/10/05 11:54:53;;;;;;;4.18;1.48;;;;;;;-140.72;100.00;52666.84;5004785;28;20041;-69
2022/10/05 11:57:36;;;;;;;2.25;1.40;;;;;;;-140.72;100.00;52624.22;5002528;28;20022;-70
2022/10/05 12:00:07;;;;;;;2.80;1.73;;;;;;;-140.72;100.00;52646.53;5007030;28;20029;-70
2022/10/05 12:02:51;;;;;;;4.20;1.45;;;;;;;-140.72;100.00;52630.31;5003527;28;20026;-69
2022/10/05 12:05:21;;;;;;;1.70;1.20;;;;;;;-140.72;100.00;52612.03;5007086;28;20260;-69
2022/10/05 12:07:46;;;;;;;1.92;0.93;;;;;;;-140.72;100.00;52650.59;5009398;28;20187;-70
2022/10/05 12:10:20;;;;;;;2.10;1.40;;;;;;;-140.72;100.00;52622.19;5008490;28;20537;-69
2022/10/05 12:13:13;;;;;;;3.65;1.38;;;;;;;-140.72;100.00;52620.16;5009797;28;20068;-69
2022/10/05 12:16:02;;;;;;;2.25;1.52;;;;;;;-140.72;100.00;52603.94;5009681;28;20040;-69
2022/10/05 12:18:30;;;;;;;4.43;2.03;;;;;;;-140.72;100.00;52597.84;5001772;28;20034;-68